sensor_id;sensor_type;location;lat;lon;timestamp;P1;durP1;ratioP1;P2;durP2;ratioP2
23668;SDS011;12011;47.422;15.018;2023-05-10T00:00:00;2.62;;;2.61;;
23668;SDS011;12011;47.422;15.018;2023-05-10T00:02:46;2.69;;;2.68;;
23668;SDS011;12011;47.422;15.018;2023-05-10T00:05:17;2.77;;;2.75;;
23668;SDS011;12011;47.422;15.018;2023-05-10T00:07:51;2.81;;;2.80;;
23668;SDS011;12011;47.422;15.018;2023-05-10T00:10:20;2.39;;;2.38;;
23668;SDS011;12011;47.422;15.018;2023-05-10T00:12:50;2.55;;;2.55;;
23668;SDS011;12011;47.422;15.018;2023-05-10T00:15:23;2.55;;;2.55;;
23668;SDS011;12011;47.422;15.018;2023-05-10T00:17:56;2.53;;;2.53;;
23668;SDS011;12011;47.422;15.018;2023-05-10T00:20:27;2.42;;;2.42;;
23668;SDS011;12011;47.422;15.018;2023-05-10T00:23:01;2.71;;;2.71;;
23668;SDS011;12011;47.422;15.018;2023-05-10T00:25:32;2.35;;;2.35;;
23668;SDS011;12011;47.422;15.018;2023-05-10T00:28:04;2.58;;;2.58;;
23668;SDS011;12011;47.422;15.018;2023-05-10T00:30:36;2.38;;;2.38;;
23668;SDS011;12011;47.422;15.018;2023-05-10T00:33:08;2.39;;;2.39;;
23668;SDS011;12011;47.422;15.018;2023-05-10T00:35:41;2.42;;;2.42;;
23668;SDS011;12011;47.422;15.018;2023-05-10T00:38:17;2.56;;;2.56;;
23668;SDS011;12011;47.422;15.018;2023-05-10T00:40:52;2.32;;;2.32;;
23668;SDS011;12011;47.422;15.018;2023-05-10T00:43:28;2.20;;;2.20;;
23668;SDS011;12011;47.422;15.018;2023-05-10T00:46:00;2.23;;;2.23;;
23668;SDS011;12011;47.422;15.018;2023-05-10T00:48:30;2.39;;;2.38;;
23668;SDS011;12011;47.422;15.018;2023-05-10T00:51:04;2.52;;;2.50;;
23668;SDS011;12011;47.422;15.018;2023-05-10T00:53:38;2.19;;;2.19;;
23668;SDS011;12011;47.422;15.018;2023-05-10T00:56:08;2.10;;;2.10;;
23668;SDS011;12011;47.422;15.018;2023-05-10T00:58:40;2.23;;;2.23;;
23668;SDS011;12011;47.422;15.018;2023-05-10T01:01:13;2.40;;;2.40;;
23668;SDS011;12011;47.422;15.018;2023-05-10T01:03:44;2.30;;;2.30;;
23668;SDS011;12011;47.422;15.018;2023-05-10T01:06:19;2.49;;;2.49;;
23668;SDS011;12011;47.422;15.018;2023-05-10T01:08:54;2.18;;;2.18;;
23668;SDS011;12011;47.422;15.018;2023-05-10T01:11:30;2.16;;;2.16;;
23668;SDS011;12011;47.422;15.018;2023-05-10T01:14:04;2.12;;;2.12;;
23668;SDS011;12011;47.422;15.018;2023-05-10T01:16:38;2.03;;;2.03;;
23668;SDS011;12011;47.422;15.018;2023-05-10T01:19:11;2.15;;;2.15;;
23668;SDS011;12011;47.422;15.018;2023-05-10T01:21:49;2.11;;;2.11;;
23668;SDS011;12011;47.422;15.018;2023-05-10T01:24:49;1.88;;;1.88;;
23668;SDS011;12011;47.422;15.018;2023-05-10T01:31:18;1.78;;;1.78;;
23668;SDS011;12011;47.422;15.018;2023-05-10T01:34:09;1.92;;;1.92;;
23668;SDS011;12011;47.422;15.018;2023-05-10T01:36:51;1.93;;;1.93;;
23668;SDS011;12011;47.422;15.018;2023-05-10T01:39:30;1.82;;;1.82;;
23668;SDS011;12011;47.422;15.018;2023-05-10T01:42:16;1.93;;;1.93;;
23668;SDS011;12011;47.422;15.018;2023-05-10T01:44:54;1.88;;;1.88;;
23668;SDS011;12011;47.422;15.018;2023-05-10T01:47:35;2.52;;;2.52;;
23668;SDS011;12011;47.422;15.018;2023-05-10T01:50:18;2.73;;;2.72;;
23668;SDS011;12011;47.422;15.018;2023-05-10T01:52:58;2.10;;;2.09;;
23668;SDS011;12011;47.422;15.018;2023-05-10T01:55:31;1.90;;;1.89;;
23668;SDS011;12011;47.422;15.018;2023-05-10T01:58:13;1.86;;;1.86;;
23668;SDS011;12011;47.422;15.018;2023-05-10T02:00:50;2.19;;;2.19;;
23668;SDS011;12011;47.422;15.018;2023-05-10T02:03:24;2.04;;;2.04;;
23668;SDS011;12011;47.422;15.018;2023-05-10T02:06:04;2.00;;;1.99;;
23668;SDS011;12011;47.422;15.018;2023-05-10T02:08:38;1.78;;;1.78;;
23668;SDS011;12011;47.422;15.018;2023-05-10T02:11:17;2.04;;;2.04;;
23668;SDS011;12011;47.422;15.018;2023-05-10T02:13:49;2.02;;;2.02;;
23668;SDS011;12011;47.422;15.018;2023-05-10T02:16:26;1.90;;;1.90;;
23668;SDS011;12011;47.422;15.018;2023-05-10T02:19:00;2.00;;;2.00;;
23668;SDS011;12011;47.422;15.018;2023-05-10T02:21:36;1.94;;;1.94;;
23668;SDS011;12011;47.422;15.018;2023-05-10T02:24:11;2.06;;;2.06;;
23668;SDS011;12011;47.422;15.018;2023-05-10T02:26:44;1.95;;;1.95;;
23668;SDS011;12011;47.422;15.018;2023-05-10T02:29:21;2.36;;;2.34;;
23668;SDS011;12011;47.422;15.018;2023-05-10T02:32:00;2.17;;;2.16;;
23668;SDS011;12011;47.422;15.018;2023-05-10T02:34:34;1.95;;;1.95;;
23668;SDS011;12011;47.422;15.018;2023-05-10T02:37:11;2.31;;;2.31;;
23668;SDS011;12011;47.422;15.018;2023-05-10T02:39:43;2.00;;;2.00;;
23668;SDS011;12011;47.422;15.018;2023-05-10T02:42:16;2.16;;;2.16;;
23668;SDS011;12011;47.422;15.018;2023-05-10T02:45:01;2.07;;;2.07;;
23668;SDS011;12011;47.422;15.018;2023-05-10T02:47:38;1.99;;;1.99;;
23668;SDS011;12011;47.422;15.018;2023-05-10T02:50:10;1.81;;;1.81;;
23668;SDS011;12011;47.422;15.018;2023-05-10T02:52:47;1.99;;;1.99;;
23668;SDS011;12011;47.422;15.018;2023-05-10T02:55:21;2.06;;;2.06;;
23668;SDS011;12011;47.422;15.018;2023-05-10T02:58:03;2.13;;;2.13;;
23668;SDS011;12011;47.422;15.018;2023-05-10T03:00:33;2.04;;;2.04;;
23668;SDS011;12011;47.422;15.018;2023-05-10T03:03:14;1.84;;;1.84;;
23668;SDS011;12011;47.422;15.018;2023-05-10T03:05:48;2.00;;;2.00;;
23668;SDS011;12011;47.422;15.018;2023-05-10T03:08:30;2.36;;;2.36;;
23668;SDS011;12011;47.422;15.018;2023-05-10T03:11:08;2.06;;;2.06;;
23668;SDS011;12011;47.422;15.018;2023-05-10T03:14:07;1.92;;;1.92;;
23668;SDS011;12011;47.422;15.018;2023-05-10T03:16:54;2.02;;;2.02;;
23668;SDS011;12011;47.422;15.018;2023-05-10T03:19:32;2.15;;;2.15;;
23668;SDS011;12011;47.422;15.018;2023-05-10T03:22:25;2.24;;;2.24;;
23668;SDS011;12011;47.422;15.018;2023-05-10T03:25:10;2.13;;;2.13;;
23668;SDS011;12011;47.422;15.018;2023-05-10T03:27:46;1.97;;;1.97;;
23668;SDS011;12011;47.422;15.018;2023-05-10T03:30:19;1.88;;;1.88;;
23668;SDS011;12011;47.422;15.018;2023-05-10T03:32:52;1.80;;;1.80;;
23668;SDS011;12011;47.422;15.018;2023-05-10T03:35:24;1.95;;;1.95;;
23668;SDS011;12011;47.422;15.018;2023-05-10T03:37:56;2.19;;;2.17;;
23668;SDS011;12011;47.422;15.018;2023-05-10T03:40:28;2.02;;;2.00;;
23668;SDS011;12011;47.422;15.018;2023-05-10T03:43:14;1.91;;;1.89;;
23668;SDS011;12011;47.422;15.018;2023-05-10T03:45:45;1.93;;;1.91;;
23668;SDS011;12011;47.422;15.018;2023-05-10T03:48:17;2.08;;;2.08;;
23668;SDS011;12011;47.422;15.018;2023-05-10T03:50:50;2.09;;;2.09;;
23668;SDS011;12011;47.422;15.018;2023-05-10T03:53:26;2.00;;;2.00;;
23668;SDS011;12011;47.422;15.018;2023-05-10T03:56:00;2.23;;;2.23;;
23668;SDS011;12011;47.422;15.018;2023-05-10T03:58:36;2.25;;;2.25;;
23668;SDS011;12011;47.422;15.018;2023-05-10T04:01:06;2.26;;;2.26;;
23668;SDS011;12011;47.422;15.018;2023-05-10T04:03:39;1.99;;;1.99;;
23668;SDS011;12011;47.422;15.018;2023-05-10T04:06:12;2.44;;;2.44;;
23668;SDS011;12011;47.422;15.018;2023-05-10T04:08:55;2.50;;;2.50;;
23668;SDS011;12011;47.422;15.018;2023-05-10T04:11:35;2.05;;;2.05;;
23668;SDS011;12011;47.422;15.018;2023-05-10T04:14:07;2.33;;;2.33;;
23668;SDS011;12011;47.422;15.018;2023-05-10T04:16:42;2.12;;;2.12;;
23668;SDS011;12011;47.422;15.018;2023-05-10T04:19:21;2.12;;;2.12;;
23668;SDS011;12011;47.422;15.018;2023-05-10T04:21:55;2.10;;;2.10;;
23668;SDS011;12011;47.422;15.018;2023-05-10T04:24:30;2.13;;;2.13;;
23668;SDS011;12011;47.422;15.018;2023-05-10T04:27:06;3.25;;;3.25;;
23668;SDS011;12011;47.422;15.018;2023-05-10T04:29:37;3.72;;;3.71;;
23668;SDS011;12011;47.422;15.018;2023-05-10T04:32:09;4.01;;;4.00;;
23668;SDS011;12011;47.422;15.018;2023-05-10T04:34:39;4.04;;;4.03;;
23668;SDS011;12011;47.422;15.018;2023-05-10T04:37:11;4.12;;;4.11;;
23668;SDS011;12011;47.422;15.018;2023-05-10T04:39:53;4.21;;;4.20;;
23668;SDS011;12011;47.422;15.018;2023-05-10T04:42:25;4.29;;;4.28;;
23668;SDS011;12011;47.422;15.018;2023-05-10T04:44:59;4.35;;;4.33;;
23668;SDS011;12011;47.422;15.018;2023-05-10T04:47:30;4.63;;;4.61;;
23668;SDS011;12011;47.422;15.018;2023-05-10T04:50:00;4.77;;;4.75;;
23668;SDS011;12011;47.422;15.018;2023-05-10T04:52:35;5.05;;;5.03;;
23668;SDS011;12011;47.422;15.018;2023-05-10T04:55:08;5.02;;;4.97;;
23668;SDS011;12011;47.422;15.018;2023-05-10T04:57:42;4.89;;;4.83;;
23668;SDS011;12011;47.422;15.018;2023-05-10T05:00:16;4.62;;;4.56;;
23668;SDS011;12011;47.422;15.018;2023-05-10T05:02:52;5.08;;;5.03;;
23668;SDS011;12011;47.422;15.018;2023-05-10T05:05:21;4.30;;;4.28;;
23668;SDS011;12011;47.422;15.018;2023-05-10T05:07:52;4.24;;;4.21;;
23668;SDS011;12011;47.422;15.018;2023-05-10T05:10:27;4.47;;;4.46;;
23668;SDS011;12011;47.422;15.018;2023-05-10T05:13:00;4.42;;;4.40;;
23668;SDS011;12011;47.422;15.018;2023-05-10T05:15:31;4.31;;;4.27;;
23668;SDS011;12011;47.422;15.018;2023-05-10T05:18:05;4.17;;;4.14;;
23668;SDS011;12011;47.422;15.018;2023-05-10T05:20:39;4.29;;;4.27;;
23668;SDS011;12011;47.422;15.018;2023-05-10T05:23:19;3.70;;;3.69;;
23668;SDS011;12011;47.422;15.018;2023-05-10T05:25:51;4.07;;;4.06;;
23668;SDS011;12011;47.422;15.018;2023-05-10T05:28:24;4.09;;;4.06;;
23668;SDS011;12011;47.422;15.018;2023-05-10T05:30:58;3.55;;;3.53;;
23668;SDS011;12011;47.422;15.018;2023-05-10T05:33:27;3.77;;;3.76;;
23668;SDS011;12011;47.422;15.018;2023-05-10T05:35:57;3.94;;;3.94;;
23668;SDS011;12011;47.422;15.018;2023-05-10T05:38:29;3.93;;;3.91;;
23668;SDS011;12011;47.422;15.018;2023-05-10T05:40:59;3.77;;;3.77;;
23668;SDS011;12011;47.422;15.018;2023-05-10T05:43:39;3.82;;;3.82;;
23668;SDS011;12011;47.422;15.018;2023-05-10T05:46:09;3.20;;;3.20;;
23668;SDS011;12011;47.422;15.018;2023-05-10T05:48:39;3.30;;;3.30;;
23668;SDS011;12011;47.422;15.018;2023-05-10T05:51:08;3.46;;;3.45;;
23668;SDS011;12011;47.422;15.018;2023-05-10T05:53:42;3.45;;;3.44;;
23668;SDS011;12011;47.422;15.018;2023-05-10T05:56:47;3.69;;;3.69;;
23668;SDS011;12011;47.422;15.018;2023-05-10T05:59:50;3.20;;;3.19;;
23668;SDS011;12011;47.422;15.018;2023-05-10T06:05:30;3.34;;;3.33;;
23668;SDS011;12011;47.422;15.018;2023-05-10T06:07:59;3.32;;;3.29;;
23668;SDS011;12011;47.422;15.018;2023-05-10T06:10:29;3.10;;;3.07;;
23668;SDS011;12011;47.422;15.018;2023-05-10T06:12:59;3.24;;;3.23;;
23668;SDS011;12011;47.422;15.018;2023-05-10T06:15:31;3.01;;;3.00;;
23668;SDS011;12011;47.422;15.018;2023-05-10T06:18:01;2.80;;;2.79;;
23668;SDS011;12011;47.422;15.018;2023-05-10T06:20:31;3.26;;;3.26;;
23668;SDS011;12011;47.422;15.018;2023-05-10T06:23:00;2.86;;;2.86;;
23668;SDS011;12011;47.422;15.018;2023-05-10T06:25:30;3.10;;;3.09;;
23668;SDS011;12011;47.422;15.018;2023-05-10T06:27:59;3.35;;;3.33;;
23668;SDS011;12011;47.422;15.018;2023-05-10T06:30:31;3.48;;;3.48;;
23668;SDS011;12011;47.422;15.018;2023-05-10T06:33:01;3.34;;;3.34;;
23668;SDS011;12011;47.422;15.018;2023-05-10T06:35:34;3.57;;;3.57;;
23668;SDS011;12011;47.422;15.018;2023-05-10T06:38:04;3.40;;;3.40;;
23668;SDS011;12011;47.422;15.018;2023-05-10T06:40:34;3.28;;;3.28;;
23668;SDS011;12011;47.422;15.018;2023-05-10T06:43:03;3.68;;;3.67;;
23668;SDS011;12011;47.422;15.018;2023-05-10T06:45:35;3.72;;;3.71;;
23668;SDS011;12011;47.422;15.018;2023-05-10T06:48:05;3.20;;;3.18;;
23668;SDS011;12011;47.422;15.018;2023-05-10T06:50:34;3.39;;;3.35;;
23668;SDS011;12011;47.422;15.018;2023-05-10T06:53:04;3.38;;;3.34;;
23668;SDS011;12011;47.422;15.018;2023-05-10T06:55:33;3.16;;;3.13;;
23668;SDS011;12011;47.422;15.018;2023-05-10T06:58:03;3.46;;;3.44;;
23668;SDS011;12011;47.422;15.018;2023-05-10T07:00:35;3.45;;;3.43;;
23668;SDS011;12011;47.422;15.018;2023-05-10T07:03:06;3.27;;;3.25;;
23668;SDS011;12011;47.422;15.018;2023-05-10T07:05:35;2.97;;;2.97;;
23668;SDS011;12011;47.422;15.018;2023-05-10T07:08:05;2.84;;;2.84;;
23668;SDS011;12011;47.422;15.018;2023-05-10T07:10:34;2.61;;;2.61;;
23668;SDS011;12011;47.422;15.018;2023-05-10T07:13:04;2.63;;;2.63;;
23668;SDS011;12011;47.422;15.018;2023-05-10T07:15:36;2.74;;;2.73;;
23668;SDS011;12011;47.422;15.018;2023-05-10T07:18:05;2.42;;;2.42;;
23668;SDS011;12011;47.422;15.018;2023-05-10T07:20:35;2.33;;;2.33;;
23668;SDS011;12011;47.422;15.018;2023-05-10T07:23:04;2.49;;;2.49;;
23668;SDS011;12011;47.422;15.018;2023-05-10T07:25:34;1.93;;;1.93;;
23668;SDS011;12011;47.422;15.018;2023-05-10T07:28:03;1.78;;;1.78;;
23668;SDS011;12011;47.422;15.018;2023-05-10T07:30:36;1.67;;;1.67;;
23668;SDS011;12011;47.422;15.018;2023-05-10T07:33:06;1.60;;;1.60;;
23668;SDS011;12011;47.422;15.018;2023-05-10T07:35:36;1.60;;;1.59;;
23668;SDS011;12011;47.422;15.018;2023-05-10T07:38:06;1.72;;;1.72;;
23668;SDS011;12011;47.422;15.018;2023-05-10T07:40:36;1.97;;;1.96;;
23668;SDS011;12011;47.422;15.018;2023-05-10T07:43:07;1.89;;;1.89;;
23668;SDS011;12011;47.422;15.018;2023-05-10T07:45:39;1.93;;;1.93;;
23668;SDS011;12011;47.422;15.018;2023-05-10T07:48:09;1.81;;;1.80;;
23668;SDS011;12011;47.422;15.018;2023-05-10T07:50:41;1.93;;;1.93;;
23668;SDS011;12011;47.422;15.018;2023-05-10T07:54:04;1.75;;;1.75;;
23668;SDS011;12011;47.422;15.018;2023-05-10T07:56:56;1.50;;;1.50;;
23668;SDS011;12011;47.422;15.018;2023-05-10T07:59:39;1.59;;;1.59;;
23668;SDS011;12011;47.422;15.018;2023-05-10T08:05:19;1.62;;;1.62;;
23668;SDS011;12011;47.422;15.018;2023-05-10T08:08:10;1.48;;;1.48;;
23668;SDS011;12011;47.422;15.018;2023-05-10T08:10:53;1.53;;;1.53;;
23668;SDS011;12011;47.422;15.018;2023-05-10T08:13:36;1.48;;;1.48;;
23668;SDS011;12011;47.422;15.018;2023-05-10T08:16:25;1.56;;;1.56;;
23668;SDS011;12011;47.422;15.018;2023-05-10T08:19:22;1.41;;;1.41;;
23668;SDS011;12011;47.422;15.018;2023-05-10T08:22:32;1.48;;;1.48;;
23668;SDS011;12011;47.422;15.018;2023-05-10T08:25:37;1.39;;;1.39;;
23668;SDS011;12011;47.422;15.018;2023-05-10T08:28:18;1.34;;;1.34;;
23668;SDS011;12011;47.422;15.018;2023-05-10T08:31:06;1.28;;;1.28;;
23668;SDS011;12011;47.422;15.018;2023-05-10T08:36:44;1.28;;;1.28;;
23668;SDS011;12011;47.422;15.018;2023-05-10T08:39:29;1.29;;;1.29;;
23668;SDS011;12011;47.422;15.018;2023-05-10T08:42:36;1.29;;;1.29;;
23668;SDS011;12011;47.422;15.018;2023-05-10T08:48:43;1.28;;;1.28;;
23668;SDS011;12011;47.422;15.018;2023-05-10T08:58:08;1.28;;;1.28;;
23668;SDS011;12011;47.422;15.018;2023-05-10T09:00:49;1.19;;;1.19;;
23668;SDS011;12011;47.422;15.018;2023-05-10T09:03:38;1.16;;;1.16;;
23668;SDS011;12011;47.422;15.018;2023-05-10T09:06:44;1.09;;;1.09;;
23668;SDS011;12011;47.422;15.018;2023-05-10T09:09:30;1.26;;;1.26;;
23668;SDS011;12011;47.422;15.018;2023-05-10T09:12:21;0.96;;;0.96;;
23668;SDS011;12011;47.422;15.018;2023-05-10T09:15:05;0.95;;;0.95;;
23668;SDS011;12011;47.422;15.018;2023-05-10T09:23:46;1.13;;;1.13;;
23668;SDS011;12011;47.422;15.018;2023-05-10T09:26:39;1.28;;;1.28;;
23668;SDS011;12011;47.422;15.018;2023-05-10T09:29:39;1.01;;;1.01;;
23668;SDS011;12011;47.422;15.018;2023-05-10T09:48:16;1.00;;;1.00;;
23668;SDS011;12011;47.422;15.018;2023-05-10T09:51:19;0.86;;;0.86;;
23668;SDS011;12011;47.422;15.018;2023-05-10T09:54:19;0.88;;;0.88;;
23668;SDS011;12011;47.422;15.018;2023-05-10T10:03:04;1.06;;;1.06;;
23668;SDS011;12011;47.422;15.018;2023-05-10T10:06:06;1.11;;;1.11;;
23668;SDS011;12011;47.422;15.018;2023-05-10T10:09:19;1.08;;;1.08;;
23668;SDS011;12011;47.422;15.018;2023-05-10T10:15:14;1.02;;;1.02;;
23668;SDS011;12011;47.422;15.018;2023-05-10T10:18:15;0.98;;;0.98;;
23668;SDS011;12011;47.422;15.018;2023-05-10T10:24:41;1.12;;;1.12;;
23668;SDS011;12011;47.422;15.018;2023-05-10T10:27:45;1.21;;;1.21;;
23668;SDS011;12011;47.422;15.018;2023-05-10T10:30:53;1.20;;;1.20;;
23668;SDS011;12011;47.422;15.018;2023-05-10T10:34:16;1.20;;;1.20;;
23668;SDS011;12011;47.422;15.018;2023-05-10T10:37:17;1.05;;;1.05;;
23668;SDS011;12011;47.422;15.018;2023-05-10T10:43:24;1.07;;;1.07;;
23668;SDS011;12011;47.422;15.018;2023-05-10T10:46:29;1.07;;;1.07;;
23668;SDS011;12011;47.422;15.018;2023-05-10T11:05:32;1.41;;;1.41;;
23668;SDS011;12011;47.422;15.018;2023-05-10T11:22:54;1.17;;;1.17;;
23668;SDS011;12011;47.422;15.018;2023-05-10T11:46:56;1.07;;;1.07;;
23668;SDS011;12011;47.422;15.018;2023-05-10T11:56:11;1.26;;;1.26;;
23668;SDS011;12011;47.422;15.018;2023-05-10T12:04:49;1.38;;;1.38;;
23668;SDS011;12011;47.422;15.018;2023-05-10T12:07:33;1.25;;;1.25;;
23668;SDS011;12011;47.422;15.018;2023-05-10T12:10:37;1.28;;;1.28;;
23668;SDS011;12011;47.422;15.018;2023-05-10T12:13:28;1.38;;;1.38;;
23668;SDS011;12011;47.422;15.018;2023-05-10T12:16:21;1.28;;;1.28;;
23668;SDS011;12011;47.422;15.018;2023-05-10T12:19:19;1.33;;;1.33;;
23668;SDS011;12011;47.422;15.018;2023-05-10T12:25:13;1.23;;;1.23;;
23668;SDS011;12011;47.422;15.018;2023-05-10T12:31:06;1.36;;;1.36;;
23668;SDS011;12011;47.422;15.018;2023-05-10T12:37:01;1.37;;;1.37;;
23668;SDS011;12011;47.422;15.018;2023-05-10T12:40:22;2.56;;;2.56;;
23668;SDS011;12011;47.422;15.018;2023-05-10T12:46:21;1.87;;;1.87;;
23668;SDS011;12011;47.422;15.018;2023-05-10T13:34:10;1.27;;;1.27;;
23668;SDS011;12011;47.422;15.018;2023-05-10T13:36:51;1.51;;;1.51;;
23668;SDS011;12011;47.422;15.018;2023-05-10T13:39:39;1.67;;;1.67;;
23668;SDS011;12011;47.422;15.018;2023-05-10T13:42:33;1.44;;;1.44;;
23668;SDS011;12011;47.422;15.018;2023-05-10T14:45:32;2.55;;;2.55;;
23668;SDS011;12011;47.422;15.018;2023-05-10T15:32:53;4.04;;;4.04;;
23668;SDS011;12011;47.422;15.018;2023-05-10T15:35:23;3.61;;;3.61;;
23668;SDS011;12011;47.422;15.018;2023-05-10T15:37:52;3.54;;;3.54;;
23668;SDS011;12011;47.422;15.018;2023-05-10T15:40:22;3.89;;;3.89;;
23668;SDS011;12011;47.422;15.018;2023-05-10T15:42:51;3.66;;;3.66;;
23668;SDS011;12011;47.422;15.018;2023-05-10T15:45:21;3.47;;;3.47;;
23668;SDS011;12011;47.422;15.018;2023-05-10T15:47:53;3.58;;;3.58;;
23668;SDS011;12011;47.422;15.018;2023-05-10T15:50:23;4.75;;;4.75;;
23668;SDS011;12011;47.422;15.018;2023-05-10T15:52:53;3.40;;;3.40;;
23668;SDS011;12011;47.422;15.018;2023-05-10T15:55:49;3.54;;;3.54;;
23668;SDS011;12011;47.422;15.018;2023-05-10T15:58:40;3.83;;;3.83;;
23668;SDS011;12011;47.422;15.018;2023-05-10T16:01:10;3.62;;;3.62;;
23668;SDS011;12011;47.422;15.018;2023-05-10T16:06:54;3.66;;;3.66;;
23668;SDS011;12011;47.422;15.018;2023-05-10T16:09:33;3.90;;;3.90;;
23668;SDS011;12011;47.422;15.018;2023-05-10T16:12:03;3.73;;;3.73;;
23668;SDS011;12011;47.422;15.018;2023-05-10T16:14:33;3.90;;;3.90;;
23668;SDS011;12011;47.422;15.018;2023-05-10T16:17:02;3.55;;;3.55;;
23668;SDS011;12011;47.422;15.018;2023-05-10T16:19:34;3.55;;;3.55;;
23668;SDS011;12011;47.422;15.018;2023-05-10T16:25:04;3.61;;;3.61;;
23668;SDS011;12011;47.422;15.018;2023-05-10T16:31:08;3.54;;;3.54;;
23668;SDS011;12011;47.422;15.018;2023-05-10T16:37:04;3.38;;;3.38;;
23668;SDS011;12011;47.422;15.018;2023-05-10T16:43:28;3.26;;;3.26;;
23668;SDS011;12011;47.422;15.018;2023-05-10T16:46:34;3.28;;;3.28;;
23668;SDS011;12011;47.422;15.018;2023-05-10T16:49:41;3.12;;;3.12;;
23668;SDS011;12011;47.422;15.018;2023-05-10T16:52:41;2.99;;;2.99;;
23668;SDS011;12011;47.422;15.018;2023-05-10T17:51:53;3.62;;;3.62;;
23668;SDS011;12011;47.422;15.018;2023-05-10T17:54:55;3.22;;;3.22;;
23668;SDS011;12011;47.422;15.018;2023-05-10T17:57:48;3.30;;;3.30;;
23668;SDS011;12011;47.422;15.018;2023-05-10T18:00:29;4.00;;;4.00;;
23668;SDS011;12011;47.422;15.018;2023-05-10T18:03:24;3.20;;;3.20;;
23668;SDS011;12011;47.422;15.018;2023-05-10T18:06:11;2.95;;;2.95;;
23668;SDS011;12011;47.422;15.018;2023-05-10T18:09:17;2.85;;;2.85;;
23668;SDS011;12011;47.422;15.018;2023-05-10T18:12:08;3.14;;;3.14;;
23668;SDS011;12011;47.422;15.018;2023-05-10T18:14:58;3.11;;;3.11;;
23668;SDS011;12011;47.422;15.018;2023-05-10T18:17:53;2.95;;;2.95;;
23668;SDS011;12011;47.422;15.018;2023-05-10T18:23:40;3.04;;;3.04;;
23668;SDS011;12011;47.422;15.018;2023-05-10T18:26:36;2.88;;;2.88;;
23668;SDS011;12011;47.422;15.018;2023-05-10T18:29:47;3.22;;;3.22;;
23668;SDS011;12011;47.422;15.018;2023-05-10T18:32:50;3.73;;;3.73;;
23668;SDS011;12011;47.422;15.018;2023-05-10T18:35:51;8.86;;;8.85;;
23668;SDS011;12011;47.422;15.018;2023-05-10T18:45:05;9.18;;;9.09;;
23668;SDS011;12011;47.422;15.018;2023-05-10T18:48:04;8.26;;;8.15;;
23668;SDS011;12011;47.422;15.018;2023-05-10T18:51:07;6.61;;;6.55;;
23668;SDS011;12011;47.422;15.018;2023-05-10T18:54:08;6.68;;;6.60;;
23668;SDS011;12011;47.422;15.018;2023-05-10T18:57:24;5.84;;;5.83;;
23668;SDS011;12011;47.422;15.018;2023-05-10T19:00:27;4.42;;;4.42;;
23668;SDS011;12011;47.422;15.018;2023-05-10T19:06:25;4.48;;;4.48;;
23668;SDS011;12011;47.422;15.018;2023-05-10T19:09:12;4.56;;;4.56;;
23668;SDS011;12011;47.422;15.018;2023-05-10T19:12:03;4.79;;;4.79;;
23668;SDS011;12011;47.422;15.018;2023-05-10T19:14:54;4.37;;;4.37;;
23668;SDS011;12011;47.422;15.018;2023-05-10T19:17:57;3.81;;;3.81;;
23668;SDS011;12011;47.422;15.018;2023-05-10T19:20:41;4.30;;;4.30;;
23668;SDS011;12011;47.422;15.018;2023-05-10T19:23:48;4.15;;;4.15;;
23668;SDS011;12011;47.422;15.018;2023-05-10T19:26:45;4.68;;;4.68;;
23668;SDS011;12011;47.422;15.018;2023-05-10T19:29:43;4.68;;;4.68;;
23668;SDS011;12011;47.422;15.018;2023-05-10T19:35:35;6.26;;;6.24;;
23668;SDS011;12011;47.422;15.018;2023-05-10T19:38:33;5.35;;;5.30;;
23668;SDS011;12011;47.422;15.018;2023-05-10T19:41:31;4.40;;;4.36;;
23668;SDS011;12011;47.422;15.018;2023-05-10T19:44:29;4.94;;;4.94;;
23668;SDS011;12011;47.422;15.018;2023-05-10T19:47:18;5.03;;;5.00;;
23668;SDS011;12011;47.422;15.018;2023-05-10T19:49:50;4.24;;;4.24;;
23668;SDS011;12011;47.422;15.018;2023-05-10T19:52:24;4.18;;;4.18;;
23668;SDS011;12011;47.422;15.018;2023-05-10T19:54:59;3.74;;;3.74;;
23668;SDS011;12011;47.422;15.018;2023-05-10T19:57:35;3.93;;;3.93;;
23668;SDS011;12011;47.422;15.018;2023-05-10T20:00:12;3.79;;;3.79;;
23668;SDS011;12011;47.422;15.018;2023-05-10T20:02:44;3.51;;;3.51;;
23668;SDS011;12011;47.422;15.018;2023-05-10T20:05:15;3.34;;;3.34;;
23668;SDS011;12011;47.422;15.018;2023-05-10T20:07:48;3.63;;;3.63;;
23668;SDS011;12011;47.422;15.018;2023-05-10T20:10:23;3.18;;;3.18;;
23668;SDS011;12011;47.422;15.018;2023-05-10T20:13:21;3.15;;;3.15;;
23668;SDS011;12011;47.422;15.018;2023-05-10T20:15:54;3.38;;;3.38;;
23668;SDS011;12011;47.422;15.018;2023-05-10T20:18:26;3.67;;;3.67;;
23668;SDS011;12011;47.422;15.018;2023-05-10T20:20:58;3.44;;;3.44;;
23668;SDS011;12011;47.422;15.018;2023-05-10T20:23:37;3.24;;;3.24;;
23668;SDS011;12011;47.422;15.018;2023-05-10T20:26:07;3.49;;;3.49;;
23668;SDS011;12011;47.422;15.018;2023-05-10T20:28:46;3.79;;;3.79;;
23668;SDS011;12011;47.422;15.018;2023-05-10T20:31:29;3.41;;;3.41;;
23668;SDS011;12011;47.422;15.018;2023-05-10T20:34:02;3.64;;;3.64;;
23668;SDS011;12011;47.422;15.018;2023-05-10T20:36:39;3.61;;;3.61;;
23668;SDS011;12011;47.422;15.018;2023-05-10T20:39:21;3.43;;;3.43;;
23668;SDS011;12011;47.422;15.018;2023-05-10T20:42:02;3.23;;;3.23;;
23668;SDS011;12011;47.422;15.018;2023-05-10T20:44:40;3.34;;;3.34;;
23668;SDS011;12011;47.422;15.018;2023-05-10T20:47:17;3.59;;;3.59;;
23668;SDS011;12011;47.422;15.018;2023-05-10T20:49:48;3.64;;;3.63;;
23668;SDS011;12011;47.422;15.018;2023-05-10T20:52:27;3.55;;;3.55;;
23668;SDS011;12011;47.422;15.018;2023-05-10T20:55:08;3.75;;;3.75;;
23668;SDS011;12011;47.422;15.018;2023-05-10T20:57:46;3.58;;;3.58;;
23668;SDS011;12011;47.422;15.018;2023-05-10T21:00:22;3.53;;;3.53;;
23668;SDS011;12011;47.422;15.018;2023-05-10T21:03:00;3.62;;;3.62;;
23668;SDS011;12011;47.422;15.018;2023-05-10T21:05:38;3.64;;;3.64;;
23668;SDS011;12011;47.422;15.018;2023-05-10T21:08:17;3.58;;;3.58;;
23668;SDS011;12011;47.422;15.018;2023-05-10T21:10:58;3.57;;;3.57;;
23668;SDS011;12011;47.422;15.018;2023-05-10T21:13:35;3.59;;;3.59;;
23668;SDS011;12011;47.422;15.018;2023-05-10T21:16:09;3.67;;;3.67;;
23668;SDS011;12011;47.422;15.018;2023-05-10T21:18:40;3.37;;;3.37;;
23668;SDS011;12011;47.422;15.018;2023-05-10T21:21:13;3.25;;;3.25;;
23668;SDS011;12011;47.422;15.018;2023-05-10T21:23:47;3.53;;;3.53;;
23668;SDS011;12011;47.422;15.018;2023-05-10T21:26:32;3.53;;;3.53;;
23668;SDS011;12011;47.422;15.018;2023-05-10T21:29:04;3.45;;;3.45;;
23668;SDS011;12011;47.422;15.018;2023-05-10T21:31:43;3.02;;;3.02;;
23668;SDS011;12011;47.422;15.018;2023-05-10T21:34:14;3.13;;;3.13;;
23668;SDS011;12011;47.422;15.018;2023-05-10T21:36:44;3.43;;;3.43;;
23668;SDS011;12011;47.422;15.018;2023-05-10T21:39:19;3.51;;;3.51;;
23668;SDS011;12011;47.422;15.018;2023-05-10T21:41:52;3.17;;;3.17;;
23668;SDS011;12011;47.422;15.018;2023-05-10T21:44:28;3.15;;;3.15;;
23668;SDS011;12011;47.422;15.018;2023-05-10T21:47:03;3.41;;;3.41;;
23668;SDS011;12011;47.422;15.018;2023-05-10T21:49:33;3.08;;;3.08;;
23668;SDS011;12011;47.422;15.018;2023-05-10T21:52:03;3.26;;;3.26;;
23668;SDS011;12011;47.422;15.018;2023-05-10T21:54:34;3.20;;;3.20;;
23668;SDS011;12011;47.422;15.018;2023-05-10T21:57:10;3.22;;;3.22;;
23668;SDS011;12011;47.422;15.018;2023-05-10T21:59:41;3.20;;;3.20;;
23668;SDS011;12011;47.422;15.018;2023-05-10T22:02:16;3.19;;;3.19;;
23668;SDS011;12011;47.422;15.018;2023-05-10T22:04:48;3.15;;;3.15;;